sensor_id;sensor_type;location;lat;lon;timestamp;P1;durP1;ratioP1;P2;durP2;ratioP2
40951;SDS011;26682;51.660;19.338;2022-11-27T00:00:50;129.32;;;56.50;;
40951;SDS011;26682;51.660;19.338;2022-11-27T00:02:57;145.75;;;65.15;;
40951;SDS011;26682;51.660;19.338;2022-11-27T00:04:44;154.07;;;66.20;;
40951;SDS011;26682;51.660;19.338;2022-11-27T00:06:31;158.97;;;78.57;;
40951;SDS011;26682;51.660;19.338;2022-11-27T00:08:19;144.10;;;68.57;;
40951;SDS011;26682;51.660;19.338;2022-11-27T00:10:08;177.57;;;104.57;;
40951;SDS011;26682;51.660;19.338;2022-11-27T00:13:43;136.40;;;63.20;;
40951;SDS011;26682;51.660;19.338;2022-11-27T00:15:31;144.27;;;62.63;;
40951;SDS011;26682;51.660;19.338;2022-11-27T00:17:19;121.85;;;54.60;;
40951;SDS011;26682;51.660;19.338;2022-11-27T00:19:06;130.45;;;54.58;;
40951;SDS011;26682;51.660;19.338;2022-11-27T00:20:54;131.57;;;57.83;;
40951;SDS011;26682;51.660;19.338;2022-11-27T00:22:41;136.43;;;61.53;;
40951;SDS011;26682;51.660;19.338;2022-11-27T00:24:28;155.90;;;84.43;;
40951;SDS011;26682;51.660;19.338;2022-11-27T00:26:16;158.65;;;85.65;;
40951;SDS011;26682;51.660;19.338;2022-11-27T00:28:03;131.45;;;60.75;;
40951;SDS011;26682;51.660;19.338;2022-11-27T00:29:50;125.82;;;57.20;;
40951;SDS011;26682;51.660;19.338;2022-11-27T00:31:37;129.00;;;56.53;;
40951;SDS011;26682;51.660;19.338;2022-11-27T00:33:25;135.98;;;65.55;;
40951;SDS011;26682;51.660;19.338;2022-11-27T00:35:12;128.98;;;61.17;;
40951;SDS011;26682;51.660;19.338;2022-11-27T00:36:59;144.50;;;71.93;;
40951;SDS011;26682;51.660;19.338;2022-11-27T00:38:47;132.00;;;63.00;;
40951;SDS011;26682;51.660;19.338;2022-11-27T00:40:34;131.73;;;62.25;;
40951;SDS011;26682;51.660;19.338;2022-11-27T00:42:21;124.38;;;55.65;;
40951;SDS011;26682;51.660;19.338;2022-11-27T00:44:09;117.45;;;54.25;;
40951;SDS011;26682;51.660;19.338;2022-11-27T00:45:57;122.15;;;53.33;;
40951;SDS011;26682;51.660;19.338;2022-11-27T00:47:45;113.28;;;52.47;;
40951;SDS011;26682;51.660;19.338;2022-11-27T00:49:32;117.30;;;53.23;;
40951;SDS011;26682;51.660;19.338;2022-11-27T00:51:20;117.15;;;52.63;;
40951;SDS011;26682;51.660;19.338;2022-11-27T00:53:08;123.95;;;52.30;;
40951;SDS011;26682;51.660;19.338;2022-11-27T00:54:55;128.63;;;56.07;;
40951;SDS011;26682;51.660;19.338;2022-11-27T00:56:42;127.43;;;54.80;;
40951;SDS011;26682;51.660;19.338;2022-11-27T00:58:30;139.30;;;54.38;;
40951;SDS011;26682;51.660;19.338;2022-11-27T01:00:17;92.03;;;43.63;;
40951;SDS011;26682;51.660;19.338;2022-11-27T01:02:05;135.23;;;60.85;;
40951;SDS011;26682;51.660;19.338;2022-11-27T01:03:53;130.02;;;60.20;;
40951;SDS011;26682;51.660;19.338;2022-11-27T01:05:44;128.15;;;56.17;;
40951;SDS011;26682;51.660;19.338;2022-11-27T01:07:32;126.40;;;57.13;;
40951;SDS011;26682;51.660;19.338;2022-11-27T01:09:19;122.97;;;54.88;;
40951;SDS011;26682;51.660;19.338;2022-11-27T01:11:06;122.00;;;54.63;;
40951;SDS011;26682;51.660;19.338;2022-11-27T01:12:59;130.63;;;55.92;;
40951;SDS011;26682;51.660;19.338;2022-11-27T01:14:46;127.90;;;55.83;;
40951;SDS011;26682;51.660;19.338;2022-11-27T01:16:33;133.93;;;59.30;;
40951;SDS011;26682;51.660;19.338;2022-11-27T01:18:24;144.48;;;61.58;;
40951;SDS011;26682;51.660;19.338;2022-11-27T01:20:11;139.00;;;60.63;;
40951;SDS011;26682;51.660;19.338;2022-11-27T01:21:58;142.35;;;60.00;;
40951;SDS011;26682;51.660;19.338;2022-11-27T01:23:45;136.02;;;57.58;;
40951;SDS011;26682;51.660;19.338;2022-11-27T01:25:34;149.93;;;81.63;;
40951;SDS011;26682;51.660;19.338;2022-11-27T01:27:21;148.98;;;81.45;;
40951;SDS011;26682;51.660;19.338;2022-11-27T01:29:08;139.43;;;72.40;;
40951;SDS011;26682;51.660;19.338;2022-11-27T01:30:56;134.32;;;62.97;;
40951;SDS011;26682;51.660;19.338;2022-11-27T01:32:44;125.45;;;56.00;;
40951;SDS011;26682;51.660;19.338;2022-11-27T01:34:31;121.67;;;56.87;;
40951;SDS011;26682;51.660;19.338;2022-11-27T01:36:18;133.95;;;61.03;;
40951;SDS011;26682;51.660;19.338;2022-11-27T01:38:05;135.27;;;60.72;;
40951;SDS011;26682;51.660;19.338;2022-11-27T01:39:52;134.60;;;57.07;;
40951;SDS011;26682;51.660;19.338;2022-11-27T01:41:39;124.75;;;56.10;;
40951;SDS011;26682;51.660;19.338;2022-11-27T01:45:28;133.23;;;64.55;;
40951;SDS011;26682;51.660;19.338;2022-11-27T01:47:18;130.50;;;59.22;;
40951;SDS011;26682;51.660;19.338;2022-11-27T01:49:21;132.70;;;58.45;;
40951;SDS011;26682;51.660;19.338;2022-11-27T01:51:22;142.75;;;65.97;;
40951;SDS011;26682;51.660;19.338;2022-11-27T01:53:12;140.60;;;63.17;;
40951;SDS011;26682;51.660;19.338;2022-11-27T01:55:09;140.77;;;64.88;;
40951;SDS011;26682;51.660;19.338;2022-11-27T01:57:09;139.55;;;60.88;;
40951;SDS011;26682;51.660;19.338;2022-11-27T01:59:03;136.75;;;61.35;;
40951;SDS011;26682;51.660;19.338;2022-11-27T02:00:51;142.68;;;57.88;;
40951;SDS011;26682;51.660;19.338;2022-11-27T02:02:39;148.65;;;57.75;;
40951;SDS011;26682;51.660;19.338;2022-11-27T02:04:27;134.38;;;57.90;;
40951;SDS011;26682;51.660;19.338;2022-11-27T02:06:14;135.27;;;57.07;;
40951;SDS011;26682;51.660;19.338;2022-11-27T02:08:02;135.15;;;56.08;;
40951;SDS011;26682;51.660;19.338;2022-11-27T02:09:56;136.93;;;57.13;;
40951;SDS011;26682;51.660;19.338;2022-11-27T02:13:49;153.00;;;76.38;;
40951;SDS011;26682;51.660;19.338;2022-11-27T02:17:49;154.88;;;66.90;;
40951;SDS011;26682;51.660;19.338;2022-11-27T02:19:50;146.88;;;60.60;;
40951;SDS011;26682;51.660;19.338;2022-11-27T02:30:15;142.75;;;58.22;;
40951;SDS011;26682;51.660;19.338;2022-11-27T02:32:11;146.13;;;56.75;;
40951;SDS011;26682;51.660;19.338;2022-11-27T02:34:32;150.15;;;66.18;;
40951;SDS011;26682;51.660;19.338;2022-11-27T02:36:31;154.50;;;60.70;;
40951;SDS011;26682;51.660;19.338;2022-11-27T02:38:22;149.60;;;59.67;;
40951;SDS011;26682;51.660;19.338;2022-11-27T02:42:23;155.60;;;61.85;;
40951;SDS011;26682;51.660;19.338;2022-11-27T02:44:14;157.20;;;63.60;;
40951;SDS011;26682;51.660;19.338;2022-11-27T02:46:04;152.60;;;61.47;;
40951;SDS011;26682;51.660;19.338;2022-11-27T02:47:53;149.52;;;59.97;;
40951;SDS011;26682;51.660;19.338;2022-11-27T02:49:43;147.43;;;63.13;;
40951;SDS011;26682;51.660;19.338;2022-11-27T02:51:37;146.80;;;59.00;;
40951;SDS011;26682;51.660;19.338;2022-11-27T02:53:49;140.88;;;57.25;;
40951;SDS011;26682;51.660;19.338;2022-11-27T02:55:39;144.98;;;57.80;;
40951;SDS011;26682;51.660;19.338;2022-11-27T02:57:29;145.95;;;56.53;;
40951;SDS011;26682;51.660;19.338;2022-11-27T02:59:18;144.00;;;56.55;;
40951;SDS011;26682;51.660;19.338;2022-11-27T03:01:07;141.75;;;54.95;;
40951;SDS011;26682;51.660;19.338;2022-11-27T03:02:58;138.60;;;57.97;;
40951;SDS011;26682;51.660;19.338;2022-11-27T03:04:50;129.90;;;55.03;;
40951;SDS011;26682;51.660;19.338;2022-11-27T03:06:45;133.90;;;53.90;;
40951;SDS011;26682;51.660;19.338;2022-11-27T03:08:45;139.88;;;55.95;;
40951;SDS011;26682;51.660;19.338;2022-11-27T03:12:46;147.25;;;57.28;;
40951;SDS011;26682;51.660;19.338;2022-11-27T03:14:34;150.52;;;59.40;;
40951;SDS011;26682;51.660;19.338;2022-11-27T03:18:46;131.75;;;55.95;;
40951;SDS011;26682;51.660;19.338;2022-11-27T03:20:42;134.40;;;54.65;;
40951;SDS011;26682;51.660;19.338;2022-11-27T03:22:37;133.65;;;53.70;;
40951;SDS011;26682;51.660;19.338;2022-11-27T03:24:25;120.80;;;51.28;;
40951;SDS011;26682;51.660;19.338;2022-11-27T03:26:14;121.30;;;51.63;;
40951;SDS011;26682;51.660;19.338;2022-11-27T03:28:02;128.70;;;51.80;;
40951;SDS011;26682;51.660;19.338;2022-11-27T03:29:54;128.75;;;53.42;;
40951;SDS011;26682;51.660;19.338;2022-11-27T03:31:44;134.15;;;59.92;;
40951;SDS011;26682;51.660;19.338;2022-11-27T03:33:31;151.35;;;67.53;;
40951;SDS011;26682;51.660;19.338;2022-11-27T03:35:20;161.02;;;72.72;;
40951;SDS011;26682;51.660;19.338;2022-11-27T03:37:10;151.00;;;67.03;;
40951;SDS011;26682;51.660;19.338;2022-11-27T03:38:57;137.20;;;54.67;;
40951;SDS011;26682;51.660;19.338;2022-11-27T03:40:54;131.98;;;53.97;;
40951;SDS011;26682;51.660;19.338;2022-11-27T03:45:26;125.95;;;52.75;;
40951;SDS011;26682;51.660;19.338;2022-11-27T03:47:23;119.35;;;49.53;;
40951;SDS011;26682;51.660;19.338;2022-11-27T03:49:30;129.23;;;51.55;;
40951;SDS011;26682;51.660;19.338;2022-11-27T03:51:29;123.90;;;51.45;;
40951;SDS011;26682;51.660;19.338;2022-11-27T03:53:35;122.82;;;50.47;;
40951;SDS011;26682;51.660;19.338;2022-11-27T03:57:19;126.40;;;51.55;;
40951;SDS011;26682;51.660;19.338;2022-11-27T03:59:15;128.27;;;50.70;;
40951;SDS011;26682;51.660;19.338;2022-11-27T04:01:20;131.07;;;52.63;;
40951;SDS011;26682;51.660;19.338;2022-11-27T04:03:11;127.75;;;52.50;;
40951;SDS011;26682;51.660;19.338;2022-11-27T04:04:58;129.98;;;53.83;;
40951;SDS011;26682;51.660;19.338;2022-11-27T04:06:46;135.68;;;56.38;;
40951;SDS011;26682;51.660;19.338;2022-11-27T04:10:21;102.75;;;40.30;;
40951;SDS011;26682;51.660;19.338;2022-11-27T04:12:08;130.63;;;53.90;;
40951;SDS011;26682;51.660;19.338;2022-11-27T04:13:55;129.82;;;55.28;;
40951;SDS011;26682;51.660;19.338;2022-11-27T04:15:42;132.25;;;54.63;;
40951;SDS011;26682;51.660;19.338;2022-11-27T04:17:30;125.85;;;53.13;;
40951;SDS011;26682;51.660;19.338;2022-11-27T04:19:17;147.63;;;72.03;;
40951;SDS011;26682;51.660;19.338;2022-11-27T04:21:04;132.25;;;55.20;;
40951;SDS011;26682;51.660;19.338;2022-11-27T04:22:52;128.77;;;53.22;;
40951;SDS011;26682;51.660;19.338;2022-11-27T04:24:39;125.27;;;51.33;;
40951;SDS011;26682;51.660;19.338;2022-11-27T04:26:26;135.10;;;55.53;;
40951;SDS011;26682;51.660;19.338;2022-11-27T04:28:13;138.05;;;55.97;;
40951;SDS011;26682;51.660;19.338;2022-11-27T04:30:03;134.27;;;52.50;;
40951;SDS011;26682;51.660;19.338;2022-11-27T04:31:50;129.68;;;55.38;;
40951;SDS011;26682;51.660;19.338;2022-11-27T04:33:38;135.10;;;56.33;;
40951;SDS011;26682;51.660;19.338;2022-11-27T04:35:25;142.45;;;65.78;;
40951;SDS011;26682;51.660;19.338;2022-11-27T04:37:12;125.45;;;54.85;;
40951;SDS011;26682;51.660;19.338;2022-11-27T04:38:59;130.30;;;55.70;;
40951;SDS011;26682;51.660;19.338;2022-11-27T04:40:46;123.30;;;52.25;;
40951;SDS011;26682;51.660;19.338;2022-11-27T04:42:33;127.03;;;54.17;;
40951;SDS011;26682;51.660;19.338;2022-11-27T04:44:20;124.65;;;52.58;;
40951;SDS011;26682;51.660;19.338;2022-11-27T04:46:08;128.38;;;53.28;;
40951;SDS011;26682;51.660;19.338;2022-11-27T04:47:55;137.77;;;54.07;;
40951;SDS011;26682;51.660;19.338;2022-11-27T04:49:42;127.22;;;52.83;;
40951;SDS011;26682;51.660;19.338;2022-11-27T04:51:29;127.05;;;49.92;;
40951;SDS011;26682;51.660;19.338;2022-11-27T04:53:17;123.45;;;52.13;;
40951;SDS011;26682;51.660;19.338;2022-11-27T04:55:04;129.68;;;53.17;;
40951;SDS011;26682;51.660;19.338;2022-11-27T04:56:51;118.85;;;51.00;;
40951;SDS011;26682;51.660;19.338;2022-11-27T04:58:39;119.90;;;50.92;;
40951;SDS011;26682;51.660;19.338;2022-11-27T05:00:27;115.95;;;47.55;;
40951;SDS011;26682;51.660;19.338;2022-11-27T05:02:14;124.15;;;49.83;;
40951;SDS011;26682;51.660;19.338;2022-11-27T05:04:01;112.33;;;48.40;;
40951;SDS011;26682;51.660;19.338;2022-11-27T05:05:55;125.57;;;51.95;;
40951;SDS011;26682;51.660;19.338;2022-11-27T05:07:42;121.43;;;51.33;;
40951;SDS011;26682;51.660;19.338;2022-11-27T05:09:30;117.13;;;48.20;;
40951;SDS011;26682;51.660;19.338;2022-11-27T05:11:17;111.70;;;47.63;;
40951;SDS011;26682;51.660;19.338;2022-11-27T05:13:04;131.63;;;51.80;;
40951;SDS011;26682;51.660;19.338;2022-11-27T05:14:51;117.55;;;54.63;;
40951;SDS011;26682;51.660;19.338;2022-11-27T05:16:39;124.88;;;50.28;;
40951;SDS011;26682;51.660;19.338;2022-11-27T05:18:27;113.85;;;49.67;;
40951;SDS011;26682;51.660;19.338;2022-11-27T05:20:14;114.13;;;47.83;;
40951;SDS011;26682;51.660;19.338;2022-11-27T05:22:01;119.63;;;53.22;;
40951;SDS011;26682;51.660;19.338;2022-11-27T05:23:50;116.38;;;51.17;;
40951;SDS011;26682;51.660;19.338;2022-11-27T05:25:38;114.93;;;54.40;;
40951;SDS011;26682;51.660;19.338;2022-11-27T05:27:25;129.60;;;52.15;;
40951;SDS011;26682;51.660;19.338;2022-11-27T05:29:12;110.13;;;49.67;;
40951;SDS011;26682;51.660;19.338;2022-11-27T05:31:00;125.68;;;52.45;;
40951;SDS011;26682;51.660;19.338;2022-11-27T05:32:47;121.80;;;51.75;;
40951;SDS011;26682;51.660;19.338;2022-11-27T05:34:34;125.93;;;55.30;;
40951;SDS011;26682;51.660;19.338;2022-11-27T05:36:21;134.80;;;60.45;;
40951;SDS011;26682;51.660;19.338;2022-11-27T05:38:10;134.45;;;68.30;;
40951;SDS011;26682;51.660;19.338;2022-11-27T05:39:57;122.90;;;57.08;;
40951;SDS011;26682;51.660;19.338;2022-11-27T05:41:44;133.33;;;54.13;;
40951;SDS011;26682;51.660;19.338;2022-11-27T05:43:32;128.82;;;55.72;;
40951;SDS011;26682;51.660;19.338;2022-11-27T05:45:23;140.10;;;68.13;;
40951;SDS011;26682;51.660;19.338;2022-11-27T05:47:10;149.20;;;65.18;;
40951;SDS011;26682;51.660;19.338;2022-11-27T05:48:57;159.32;;;75.88;;
40951;SDS011;26682;51.660;19.338;2022-11-27T05:50:45;142.63;;;70.87;;
40951;SDS011;26682;51.660;19.338;2022-11-27T05:52:32;134.45;;;60.13;;
40951;SDS011;26682;51.660;19.338;2022-11-27T05:54:20;138.57;;;55.92;;
40951;SDS011;26682;51.660;19.338;2022-11-27T05:56:11;123.83;;;57.03;;
40951;SDS011;26682;51.660;19.338;2022-11-27T05:58:00;120.32;;;47.75;;
40951;SDS011;26682;51.660;19.338;2022-11-27T05:59:47;134.77;;;57.10;;
40951;SDS011;26682;51.660;19.338;2022-11-27T06:01:34;136.80;;;66.60;;
40951;SDS011;26682;51.660;19.338;2022-11-27T06:03:21;137.32;;;66.30;;
40951;SDS011;26682;51.660;19.338;2022-11-27T06:05:08;127.97;;;63.40;;
40951;SDS011;26682;51.660;19.338;2022-11-27T06:06:59;120.65;;;50.65;;
40951;SDS011;26682;51.660;19.338;2022-11-27T06:08:46;119.30;;;49.10;;
40951;SDS011;26682;51.660;19.338;2022-11-27T06:10:34;121.13;;;47.80;;
40951;SDS011;26682;51.660;19.338;2022-11-27T06:12:23;114.03;;;47.33;;
40951;SDS011;26682;51.660;19.338;2022-11-27T06:14:10;118.32;;;51.28;;
40951;SDS011;26682;51.660;19.338;2022-11-27T06:15:57;123.53;;;54.58;;
40951;SDS011;26682;51.660;19.338;2022-11-27T06:17:44;121.30;;;58.13;;
40951;SDS011;26682;51.660;19.338;2022-11-27T06:19:33;131.73;;;60.13;;
40951;SDS011;26682;51.660;19.338;2022-11-27T06:21:22;123.72;;;51.40;;
40951;SDS011;26682;51.660;19.338;2022-11-27T06:23:09;120.15;;;48.08;;
40951;SDS011;26682;51.660;19.338;2022-11-27T06:24:56;115.40;;;47.53;;
40951;SDS011;26682;51.660;19.338;2022-11-27T06:26:44;112.18;;;52.75;;
40951;SDS011;26682;51.660;19.338;2022-11-27T06:28:31;144.77;;;76.78;;
40951;SDS011;26682;51.660;19.338;2022-11-27T06:30:18;135.07;;;66.33;;
40951;SDS011;26682;51.660;19.338;2022-11-27T06:32:06;125.43;;;56.92;;
40951;SDS011;26682;51.660;19.338;2022-11-27T06:34:17;149.77;;;61.08;;
40951;SDS011;26682;51.660;19.338;2022-11-27T06:36:04;133.43;;;55.22;;
40951;SDS011;26682;51.660;19.338;2022-11-27T06:37:52;126.18;;;53.40;;
40951;SDS011;26682;51.660;19.338;2022-11-27T06:39:40;114.70;;;50.20;;
40951;SDS011;26682;51.660;19.338;2022-11-27T06:41:27;128.73;;;52.13;;
40951;SDS011;26682;51.660;19.338;2022-11-27T06:43:15;131.90;;;51.58;;
40951;SDS011;26682;51.660;19.338;2022-11-27T06:45:02;124.13;;;52.08;;
40951;SDS011;26682;51.660;19.338;2022-11-27T06:46:51;131.65;;;52.90;;
40951;SDS011;26682;51.660;19.338;2022-11-27T06:48:39;130.57;;;55.33;;
40951;SDS011;26682;51.660;19.338;2022-11-27T06:50:31;129.38;;;54.25;;
40951;SDS011;26682;51.660;19.338;2022-11-27T06:52:19;132.02;;;53.65;;
40951;SDS011;26682;51.660;19.338;2022-11-27T06:54:06;119.75;;;51.63;;
40951;SDS011;26682;51.660;19.338;2022-11-27T06:55:56;116.03;;;49.05;;
40951;SDS011;26682;51.660;19.338;2022-11-27T06:57:43;117.00;;;50.00;;
40951;SDS011;26682;51.660;19.338;2022-11-27T06:59:34;115.18;;;49.45;;
40951;SDS011;26682;51.660;19.338;2022-11-27T07:01:22;115.30;;;49.58;;
40951;SDS011;26682;51.660;19.338;2022-11-27T07:03:10;110.15;;;48.78;;
40951;SDS011;26682;51.660;19.338;2022-11-27T07:04:58;125.65;;;55.38;;
40951;SDS011;26682;51.660;19.338;2022-11-27T07:06:45;120.03;;;51.22;;
40951;SDS011;26682;51.660;19.338;2022-11-27T07:08:33;115.57;;;51.78;;
40951;SDS011;26682;51.660;19.338;2022-11-27T07:10:21;118.15;;;49.75;;
40951;SDS011;26682;51.660;19.338;2022-11-27T07:12:12;116.22;;;50.25;;
40951;SDS011;26682;51.660;19.338;2022-11-27T07:14:00;109.78;;;49.60;;
40951;SDS011;26682;51.660;19.338;2022-11-27T07:15:49;127.40;;;51.90;;
40951;SDS011;26682;51.660;19.338;2022-11-27T07:17:36;120.22;;;51.08;;
40951;SDS011;26682;51.660;19.338;2022-11-27T07:19:24;110.68;;;50.67;;
40951;SDS011;26682;51.660;19.338;2022-11-27T07:21:12;138.10;;;60.40;;
40951;SDS011;26682;51.660;19.338;2022-11-27T07:23:03;125.78;;;56.35;;
40951;SDS011;26682;51.660;19.338;2022-11-27T07:24:50;127.90;;;61.72;;
40951;SDS011;26682;51.660;19.338;2022-11-27T07:26:37;107.07;;;50.92;;
40951;SDS011;26682;51.660;19.338;2022-11-27T07:28:25;117.63;;;57.15;;
40951;SDS011;26682;51.660;19.338;2022-11-27T07:30:12;121.13;;;51.92;;
40951;SDS011;26682;51.660;19.338;2022-11-27T07:32:00;122.25;;;61.13;;
40951;SDS011;26682;51.660;19.338;2022-11-27T07:33:47;112.25;;;50.88;;
40951;SDS011;26682;51.660;19.338;2022-11-27T07:35:37;117.13;;;49.47;;
40951;SDS011;26682;51.660;19.338;2022-11-27T07:37:24;113.63;;;53.47;;
40951;SDS011;26682;51.660;19.338;2022-11-27T07:39:36;208.10;;;94.18;;
40951;SDS011;26682;51.660;19.338;2022-11-27T07:41:44;391.35;;;180.90;;
40951;SDS011;26682;51.660;19.338;2022-11-27T07:43:32;273.33;;;121.63;;
40951;SDS011;26682;51.660;19.338;2022-11-27T07:45:20;127.43;;;57.58;;
40951;SDS011;26682;51.660;19.338;2022-11-27T07:47:07;102.10;;;46.22;;
40951;SDS011;26682;51.660;19.338;2022-11-27T07:48:54;119.32;;;54.15;;
40951;SDS011;26682;51.660;19.338;2022-11-27T07:50:41;121.40;;;62.08;;
40951;SDS011;26682;51.660;19.338;2022-11-27T07:52:28;124.00;;;60.05;;
40951;SDS011;26682;51.660;19.338;2022-11-27T07:54:16;124.60;;;61.22;;
40951;SDS011;26682;51.660;19.338;2022-11-27T07:56:03;112.40;;;59.30;;
40951;SDS011;26682;51.660;19.338;2022-11-27T07:57:52;118.65;;;60.30;;
40951;SDS011;26682;51.660;19.338;2022-11-27T07:59:39;108.80;;;50.05;;
40951;SDS011;26682;51.660;19.338;2022-11-27T08:01:32;101.70;;;50.05;;
40951;SDS011;26682;51.660;19.338;2022-11-27T08:03:19;108.35;;;53.30;;
40951;SDS011;26682;51.660;19.338;2022-11-27T08:05:07;103.53;;;53.28;;
40951;SDS011;26682;51.660;19.338;2022-11-27T08:06:58;95.18;;;48.38;;
40951;SDS011;26682;51.660;19.338;2022-11-27T08:08:45;98.82;;;53.25;;
40951;SDS011;26682;51.660;19.338;2022-11-27T08:10:34;97.30;;;49.33;;
40951;SDS011;26682;51.660;19.338;2022-11-27T08:12:23;97.65;;;48.75;;
40951;SDS011;26682;51.660;19.338;2022-11-27T08:14:11;96.00;;;46.88;;
40951;SDS011;26682;51.660;19.338;2022-11-27T08:15:59;86.50;;;42.13;;
40951;SDS011;26682;51.660;19.338;2022-11-27T08:17:46;89.88;;;42.30;;
40951;SDS011;26682;51.660;19.338;2022-11-27T08:19:34;96.60;;;48.15;;
40951;SDS011;26682;51.660;19.338;2022-11-27T08:21:21;100.60;;;49.67;;
40951;SDS011;26682;51.660;19.338;2022-11-27T08:23:09;104.15;;;57.92;;
40951;SDS011;26682;51.660;19.338;2022-11-27T08:24:56;86.75;;;43.42;;
40951;SDS011;26682;51.660;19.338;2022-11-27T08:26:44;89.50;;;45.47;;
40951;SDS011;26682;51.660;19.338;2022-11-27T08:28:31;88.05;;;43.05;;
40951;SDS011;26682;51.660;19.338;2022-11-27T08:30:19;87.47;;;47.28;;
40951;SDS011;26682;51.660;19.338;2022-11-27T08:32:09;92.00;;;46.80;;
40951;SDS011;26682;51.660;19.338;2022-11-27T08:33:57;89.20;;;44.15;;
40951;SDS011;26682;51.660;19.338;2022-11-27T08:35:47;93.88;;;46.88;;
40951;SDS011;26682;51.660;19.338;2022-11-27T08:37:35;87.43;;;45.25;;
40951;SDS011;26682;51.660;19.338;2022-11-27T08:41:12;84.35;;;43.25;;
40951;SDS011;26682;51.660;19.338;2022-11-27T08:44:47;100.47;;;47.75;;
40951;SDS011;26682;51.660;19.338;2022-11-27T08:46:34;106.32;;;53.17;;
40951;SDS011;26682;51.660;19.338;2022-11-27T08:48:22;104.43;;;50.13;;
40951;SDS011;26682;51.660;19.338;2022-11-27T08:50:11;87.72;;;44.97;;
40951;SDS011;26682;51.660;19.338;2022-11-27T08:51:58;92.53;;;46.17;;
40951;SDS011;26682;51.660;19.338;2022-11-27T08:53:46;86.00;;;43.45;;
40951;SDS011;26682;51.660;19.338;2022-11-27T08:55:33;89.45;;;47.30;;
40951;SDS011;26682;51.660;19.338;2022-11-27T08:57:20;93.33;;;48.87;;
40951;SDS011;26682;51.660;19.338;2022-11-27T08:59:07;89.65;;;46.30;;
40951;SDS011;26682;51.660;19.338;2022-11-27T09:00:54;88.35;;;44.83;;
40951;SDS011;26682;51.660;19.338;2022-11-27T09:02:42;82.88;;;41.97;;
40951;SDS011;26682;51.660;19.338;2022-11-27T09:04:29;84.60;;;41.47;;
40951;SDS011;26682;51.660;19.338;2022-11-27T09:06:17;89.95;;;47.03;;
40951;SDS011;26682;51.660;19.338;2022-11-27T09:08:15;88.85;;;44.20;;
40951;SDS011;26682;51.660;19.338;2022-11-27T09:10:07;94.50;;;43.78;;
40951;SDS011;26682;51.660;19.338;2022-11-27T09:11:55;87.18;;;43.78;;
40951;SDS011;26682;51.660;19.338;2022-11-27T09:13:42;87.53;;;44.38;;
40951;SDS011;26682;51.660;19.338;2022-11-27T09:15:30;90.00;;;45.10;;
40951;SDS011;26682;51.660;19.338;2022-11-27T09:17:18;86.40;;;42.63;;
40951;SDS011;26682;51.660;19.338;2022-11-27T09:19:05;89.78;;;48.13;;
40951;SDS011;26682;51.660;19.338;2022-11-27T09:20:56;91.43;;;47.03;;
40951;SDS011;26682;51.660;19.338;2022-11-27T09:22:45;87.82;;;41.78;;
40951;SDS011;26682;51.660;19.338;2022-11-27T09:24:32;85.80;;;44.95;;
40951;SDS011;26682;51.660;19.338;2022-11-27T09:26:21;74.03;;;40.75;;
40951;SDS011;26682;51.660;19.338;2022-11-27T09:28:11;86.07;;;44.92;;
40951;SDS011;26682;51.660;19.338;2022-11-27T09:29:58;95.57;;;50.03;;
40951;SDS011;26682;51.660;19.338;2022-11-27T09:31:46;112.63;;;56.53;;
40951;SDS011;26682;51.660;19.338;2022-11-27T09:33:34;105.78;;;54.63;;
40951;SDS011;26682;51.660;19.338;2022-11-27T09:35:23;92.95;;;47.95;;
40951;SDS011;26682;51.660;19.338;2022-11-27T09:37:11;88.60;;;48.10;;
40951;SDS011;26682;51.660;19.338;2022-11-27T09:38:58;116.75;;;73.55;;
40951;SDS011;26682;51.660;19.338;2022-11-27T09:40:49;95.25;;;54.78;;
40951;SDS011;26682;51.660;19.338;2022-11-27T09:42:39;88.40;;;46.47;;
40951;SDS011;26682;51.660;19.338;2022-11-27T09:44:42;95.05;;;48.67;;
40951;SDS011;26682;51.660;19.338;2022-11-27T09:46:36;90.45;;;47.55;;
40951;SDS011;26682;51.660;19.338;2022-11-27T09:48:30;99.25;;;54.42;;
40951;SDS011;26682;51.660;19.338;2022-11-27T09:50:22;98.95;;;58.72;;
40951;SDS011;26682;51.660;19.338;2022-11-27T09:52:23;101.22;;;60.47;;
40951;SDS011;26682;51.660;19.338;2022-11-27T09:54:39;104.15;;;57.65;;
40951;SDS011;26682;51.660;19.338;2022-11-27T09:56:37;109.40;;;67.65;;
40951;SDS011;26682;51.660;19.338;2022-11-27T09:58:34;110.50;;;68.22;;
40951;SDS011;26682;51.660;19.338;2022-11-27T10:00:22;131.60;;;78.63;;
40951;SDS011;26682;51.660;19.338;2022-11-27T10:02:17;97.18;;;57.08;;
40951;SDS011;26682;51.660;19.338;2022-11-27T10:04:14;101.80;;;56.30;;
40951;SDS011;26682;51.660;19.338;2022-11-27T10:06:18;77.57;;;42.28;;
40951;SDS011;26682;51.660;19.338;2022-11-27T10:08:27;89.20;;;58.17;;
40951;SDS011;26682;51.660;19.338;2022-11-27T10:16:54;65.00;;;36.30;;
40951;SDS011;26682;51.660;19.338;2022-11-27T10:18:50;74.40;;;42.63;;
40951;SDS011;26682;51.660;19.338;2022-11-27T10:21:00;92.93;;;57.25;;
40951;SDS011;26682;51.660;19.338;2022-11-27T10:23:20;72.13;;;41.50;;
40951;SDS011;26682;51.660;19.338;2022-11-27T10:27:43;63.38;;;35.85;;
40951;SDS011;26682;51.660;19.338;2022-11-27T10:29:50;63.97;;;36.28;;
40951;SDS011;26682;51.660;19.338;2022-11-27T10:31:47;72.40;;;42.67;;
40951;SDS011;26682;51.660;19.338;2022-11-27T10:35:30;84.93;;;42.63;;
40951;SDS011;26682;51.660;19.338;2022-11-27T10:37:27;76.63;;;38.42;;
40951;SDS011;26682;51.660;19.338;2022-11-27T10:39:35;70.75;;;38.10;;
40951;SDS011;26682;51.660;19.338;2022-11-27T10:41:27;130.50;;;53.97;;
40951;SDS011;26682;51.660;19.338;2022-11-27T10:43:38;92.18;;;46.47;;
40951;SDS011;26682;51.660;19.338;2022-11-27T10:45:30;93.38;;;51.00;;
40951;SDS011;26682;51.660;19.338;2022-11-27T10:47:38;107.80;;;60.85;;
40951;SDS011;26682;51.660;19.338;2022-11-27T10:49:28;103.55;;;52.28;;
40951;SDS011;26682;51.660;19.338;2022-11-27T10:51:21;113.13;;;63.20;;
40951;SDS011;26682;51.660;19.338;2022-11-27T10:55:11;137.70;;;65.70;;
40951;SDS011;26682;51.660;19.338;2022-11-27T10:59:23;109.43;;;56.80;;
40951;SDS011;26682;51.660;19.338;2022-11-27T11:01:21;100.30;;;59.50;;
40951;SDS011;26682;51.660;19.338;2022-11-27T11:03:15;108.85;;;64.30;;
40951;SDS011;26682;51.660;19.338;2022-11-27T11:05:11;94.68;;;56.97;;
40951;SDS011;26682;51.660;19.338;2022-11-27T11:07:28;103.88;;;58.33;;
40951;SDS011;26682;51.660;19.338;2022-11-27T11:11:07;98.88;;;54.47;;
40951;SDS011;26682;51.660;19.338;2022-11-27T11:14:58;84.53;;;45.72;;
40951;SDS011;26682;51.660;19.338;2022-11-27T11:16:46;80.30;;;45.75;;
40951;SDS011;26682;51.660;19.338;2022-11-27T11:18:40;76.60;;;39.50;;
40951;SDS011;26682;51.660;19.338;2022-11-27T11:20:29;77.68;;;43.80;;